Terminal Aerodrome Forecast
Issued by NWS

Home | Current Version | Previous Version | Text Only | Print | Product List | Glossary On
Versions: 1 2 3 4 5 6 7 8 9 10 11 12 13 14 15 16 17 18 19 20 21 22 23 24 25 26 27 28
000
FTAK31 PANC 281839 AAA
TAFAEN
TAF AMD
PAEN 281839Z 2819/2918 01005KT 3SM -SN BR BKN030
      TEMPO 2819/2822 1 1/2SM -SN BR BKN020
     FM282200 36007KT 6SM -SN BKN035
     FM291500 20005KT 3SM -SN BR BKN025=

USA.gov is the U.S. government's official web portal to all federal, state and local government web resources and services.